Time;durP1;ratioP1;P1;durP2;ratioP2;P2;SDS_P1;SDS_P2;PMS_P1;PMS_P2;Temp;Humidity;BMP_temperature;BMP_pressure;BME280_temperature;BME280_humidity;BME280_pressure;Samples;Min_cycle;Max_cycle;Signal;HPM_P1;HPM_P2
2022/08/28 00:00:09;;;;;;;18.40;7.35;;;;;;;18.06;70.18;96252.50;5093058;28;20135;-58
2022/08/28 00:02:37;;;;;;;17.55;7.55;;;;;;;18.08;70.09;96252.41;5093081;28;20048;-58
2022/08/28 00:05:06;;;;;;;23.83;7.32;;;;;;;18.04;70.38;96254.44;5093032;28;20106;-57
2022/08/28 00:07:33;;;;;;;16.52;7.63;;;;;;;18.00;70.53;96258.28;5092978;28;20040;-60
2022/08/28 00:10:00;;;;;;;19.42;7.30;;;;;;;17.99;70.67;96256.56;5092951;28;20051;-59
2022/08/28 00:12:28;;;;;;;11.32;7.13;;;;;;;17.92;70.51;96257.03;5093019;28;20123;-59
2022/08/28 00:14:55;;;;;;;26.88;7.95;;;;;;;17.93;70.88;96257.84;5093071;28;20044;-59
2022/08/28 00:17:22;;;;;;;14.98;7.22;;;;;;;17.87;70.82;96259.16;5093029;28;20123;-60
2022/08/28 00:19:50;;;;;;;16.58;8.10;;;;;;;17.86;70.58;96259.25;5092845;28;20048;-60
2022/08/28 00:22:17;;;;;;;19.45;7.93;;;;;;;17.91;71.05;96260.63;5092904;28;20064;-59
2022/08/28 00:24:45;;;;;;;15.52;7.95;;;;;;;17.94;71.23;96263.03;5092857;28;20044;-57
2022/08/28 00:29:56;;;;;;;15.88;7.70;;;;;;;17.85;71.43;96255.75;5095975;28;20181;-59
2022/08/28 00:32:24;;;;;;;13.68;7.18;;;;;;;17.80;71.79;96256.13;5096722;28;20059;-59
2022/08/28 00:34:53;;;;;;;21.75;7.95;;;;;;;17.78;71.65;96262.44;5096724;28;20048;-57
2022/08/28 00:37:20;;;;;;;19.50;8.40;;;;;;;17.81;71.69;96252.50;5096469;28;20214;-59
2022/08/28 00:39:48;;;;;;;21.23;8.02;;;;;;;17.81;71.77;96260.44;5096472;28;20536;-59
2022/08/28 00:42:15;;;;;;;19.75;8.57;;;;;;;17.81;71.81;96255.16;5096763;28;20415;-59
2022/08/28 00:44:43;;;;;;;14.50;8.02;;;;;;;17.84;71.98;96251.44;5096410;28;20485;-60
2022/08/28 00:47:11;;;;;;;16.90;7.45;;;;;;;17.83;71.87;96252.41;5096377;28;20515;-60
2022/08/28 00:49:46;;;;;;;11.02;7.28;;;;;;;17.80;71.96;96249.97;5096302;28;20460;-58
2022/08/28 00:52:14;;;;;;;12.55;7.88;;;;;;;17.74;71.63;96247.75;5096287;28;20044;-60
2022/08/28 00:54:46;;;;;;;15.73;7.50;;;;;;;17.70;72.04;96251.59;5096257;28;20112;-59
2022/08/28 00:57:23;;;;;;;13.85;8.10;;;;;;;17.71;72.31;96248.84;5096322;28;20044;-60
2022/08/28 00:59:50;;;;;;;20.63;8.48;;;;;;;17.69;72.78;96248.09;5096173;28;20497;-58
2022/08/28 01:02:18;;;;;;;16.67;7.70;;;;;;;17.70;72.71;96241.00;5096049;28;20040;-58
2022/08/28 01:04:46;;;;;;;15.68;8.60;;;;;;;17.72;72.82;96252.31;5096122;28;20097;-58
2022/08/28 01:07:14;;;;;;;14.50;7.50;;;;;;;17.74;72.78;96247.75;5095946;28;20439;-59
2022/08/28 01:09:44;;;;;;;20.40;8.98;;;;;;;17.77;72.93;96252.84;5096295;28;20143;-58
2022/08/28 01:12:15;;;;;;;16.17;7.90;;;;;;;17.77;72.87;96244.91;5095932;28;20072;-60
2022/08/28 01:14:46;;;;;;;16.77;8.10;;;;;;;17.77;73.07;96251.03;5095885;28;20584;-57
2022/08/28 01:17:15;;;;;;;15.18;8.63;;;;;;;17.78;72.93;96244.78;5095745;28;20101;-59
2022/08/28 01:19:45;;;;;;;16.42;8.02;;;;;;;17.79;72.62;96249.13;5095658;28;20132;-58
2022/08/28 01:22:22;;;;;;;16.58;8.30;;;;;;;17.78;72.92;96254.50;5095864;28;20048;-59
2022/08/28 01:24:54;;;;;;;15.90;8.80;;;;;;;17.74;72.94;96255.69;5095796;28;20580;-60
2022/08/28 01:27:21;;;;;;;15.85;9.20;;;;;;;17.74;73.02;96261.00;5095662;28;20112;-59
2022/08/28 01:29:49;;;;;;;11.63;7.97;;;;;;;17.72;73.09;96254.94;5095583;28;20131;-58
2022/08/28 01:32:28;;;;;;;19.63;8.38;;;;;;;17.69;73.47;96258.66;5095645;28;20444;-59
2022/08/28 01:34:56;;;;;;;13.38;8.40;;;;;;;17.65;73.31;96252.78;5095813;28;20121;-60
2022/08/28 01:37:24;;;;;;;19.05;8.75;;;;;;;17.64;73.61;96255.53;5095422;28;20058;-61
2022/08/28 01:39:53;;;;;;;13.70;8.45;;;;;;;17.62;73.51;96262.72;5094783;28;20055;-58
2022/08/28 01:42:20;;;;;;;19.38;8.10;;;;;;;17.60;73.61;96254.88;5095538;28;20055;-58
2022/08/28 01:44:48;;;;;;;17.73;8.18;;;;;;;17.62;73.63;96254.78;5095549;28;20083;-59
2022/08/28 01:47:15;;;;;;;24.70;8.95;;;;;;;17.63;73.35;96261.75;5095228;28;20094;-59
2022/08/28 01:49:42;;;;;;;17.35;8.65;;;;;;;17.58;73.48;96266.53;5095197;28;20048;-59
2022/08/28 01:52:09;;;;;;;15.68;8.20;;;;;;;17.52;73.41;96259.88;5095226;28;20048;-58
2022/08/28 01:54:38;;;;;;;19.83;8.73;;;;;;;17.49;73.55;96260.91;5095183;28;20150;-60
2022/08/28 01:57:07;;;;;;;20.50;8.27;;;;;;;17.47;73.84;96260.19;5095018;28;20474;-58
2022/08/28 01:59:34;;;;;;;14.90;7.88;;;;;;;17.46;73.75;96257.66;5095039;28;20132;-60
2022/08/28 02:02:01;;;;;;;19.70;7.85;;;;;;;17.49;73.75;96260.09;5095142;28;20051;-59
2022/08/28 02:04:28;;;;;;;11.55;8.30;;;;;;;17.48;73.58;96263.69;5094738;28;20044;-59
2022/08/28 02:06:56;;;;;;;15.73;8.32;;;;;;;17.47;73.70;96256.72;5094920;28;20539;-60
2022/08/28 02:09:22;;;;;;;15.27;7.95;;;;;;;17.49;73.58;96258.28;5094780;28;20058;-59
2022/08/28 02:11:50;;;;;;;18.20;7.90;;;;;;;17.44;73.16;96257.78;5094759;28;20073;-59
2022/08/28 02:14:19;;;;;;;28.08;8.50;;;;;;;17.37;73.28;96259.16;5094641;28;20040;-60
2022/08/28 02:16:46;;;;;;;16.35;8.00;;;;;;;17.28;73.39;96264.13;5094627;28;20513;-60
2022/08/28 02:19:13;;;;;;;23.02;8.10;;;;;;;17.20;73.56;96263.81;5094468;28;20083;-60
2022/08/28 02:21:41;;;;;;;15.35;7.75;;;;;;;17.20;74.10;96263.81;5094460;28;20063;-60
2022/08/28 02:24:09;;;;;;;15.85;7.35;;;;;;;17.24;74.35;96264.44;5094792;28;20044;-58
2022/08/28 02:26:36;;;;;;;14.65;8.25;;;;;;;17.24;74.32;96260.00;5094474;28;20109;-58
2022/08/28 02:29:04;;;;;;;23.17;7.82;;;;;;;17.13;74.38;96257.28;5094423;28;20055;-58
2022/08/28 02:31:33;;;;;;;21.42;8.48;;;;;;;16.96;75.07;96243.41;5094302;28;20087;-60
2022/08/28 02:34:00;;;;;;;15.60;7.25;;;;;;;17.04;74.50;96259.56;5094362;28;20047;-58
2022/08/28 02:36:28;;;;;;;12.00;6.93;;;;;;;17.05;74.20;96260.41;5094154;28;20048;-58
2022/08/28 02:38:55;;;;;;;19.20;8.15;;;;;;;16.97;73.93;96257.44;5094037;28;20048;-58
2022/08/28 02:41:22;;;;;;;14.13;7.50;;;;;;;16.92;74.32;96260.41;5094401;28;20078;-58
2022/08/28 02:43:50;;;;;;;16.15;7.68;;;;;;;16.91;74.72;96264.84;5094063;28;20139;-59
2022/08/28 02:46:17;;;;;;;23.05;7.85;;;;;;;16.95;74.92;96262.00;5094178;28;20105;-58
2022/08/28 02:48:46;;;;;;;32.63;8.23;;;;;;;17.00;74.97;96259.88;5094189;28;20046;-60
2022/08/28 02:51:14;;;;;;;21.73;7.78;;;;;;;17.00;74.79;96275.72;5093247;28;20048;-57
2022/08/28 02:53:42;;;;;;;19.67;8.38;;;;;;;17.02;74.39;96265.91;5094107;28;20048;-59
2022/08/28 02:56:10;;;;;;;20.98;8.05;;;;;;;16.99;74.58;96281.97;5093929;28;20044;-58
2022/08/28 02:58:38;;;;;;;18.05;7.43;;;;;;;17.00;74.47;96283.66;5093875;28;20090;-59
2022/08/28 03:01:09;;;;;;;28.90;7.80;;;;;;;16.96;74.71;96279.53;5093692;28;20082;-60
2022/08/28 03:03:37;;;;;;;;;;;;;;;16.90;74.47;96281.66;5094386;28;20047;-60
2022/08/28 03:06:06;;;;;;;15.98;7.55;;;;;;;16.84;74.76;96279.41;5093837;28;20006;-60
2022/08/28 03:08:33;;;;;;;18.85;8.90;;;;;;;16.81;74.81;96284.91;5093882;28;20051;-58
2022/08/28 03:11:01;;;;;;;17.08;7.38;;;;;;;16.87;74.91;96281.00;5093615;28;20052;-59
2022/08/28 03:13:28;;;;;;;12.90;7.57;;;;;;;16.90;74.35;96279.00;5093731;28;20139;-59
2022/08/28 03:15:57;;;;;;;15.55;8.05;;;;;;;16.80;74.64;96270.84;5093629;28;20076;-60
2022/08/28 03:18:24;;;;;;;19.27;7.18;;;;;;;16.80;74.23;96275.31;5093512;28;20044;-60
2022/08/28 03:20:52;;;;;;;17.23;7.20;;;;;;;16.77;74.23;96284.25;5093420;28;20047;-58
2022/08/28 03:23:26;;;;;;;15.57;7.45;;;;;;;16.73;74.27;96284.56;5093394;28;20554;-59
2022/08/28 03:25:54;;;;;;;25.33;8.48;;;;;;;16.71;74.39;96287.34;5093811;28;20098;-59
2022/08/28 03:28:21;;;;;;;20.85;7.85;;;;;;;16.66;75.16;96284.13;5093694;28;20059;-60
2022/08/28 03:30:48;;;;;;;21.50;7.60;;;;;;;16.71;75.59;96286.47;5093447;28;20052;-58
2022/08/28 03:33:15;;;;;;;20.40;8.27;;;;;;;16.75;75.37;96285.31;5093477;28;20071;-59
2022/08/28 03:35:42;;;;;;;21.33;7.32;;;;;;;16.74;75.52;96283.63;5093286;28;20052;-60
2022/08/28 03:38:11;;;;;;;20.55;7.80;;;;;;;16.71;74.91;96287.34;5093357;28;20048;-59
2022/08/28 03:40:41;;;;;;;25.27;8.13;;;;;;;16.73;74.78;96289.84;5093136;28;20063;-59
2022/08/28 03:43:11;;;;;;;22.15;8.07;;;;;;;16.71;74.72;96295.25;5093210;28;20482;-59
2022/08/28 03:45:39;;;;;;;22.77;8.02;;;;;;;16.71;74.76;96291.75;5093611;28;20044;-58
2022/08/28 03:48:07;;;;;;;15.50;7.13;;;;;;;16.73;74.82;96288.06;5093194;28;20048;-59
2022/08/28 03:50:35;;;;;;;18.10;6.80;;;;;;;16.78;74.82;96293.03;5093244;28;20059;-59
2022/08/28 03:53:02;;;;;;;16.00;7.47;;;;;;;16.80;74.84;96286.69;5093353;28;20052;-59
2022/08/28 03:55:29;;;;;;;16.80;7.30;;;;;;;16.84;74.59;96294.41;5093490;28;20101;-59
2022/08/28 03:57:58;;;;;;;22.85;7.18;;;;;;;16.86;74.56;96297.81;5093194;28;20486;-58
2022/08/28 04:00:26;;;;;;;21.10;7.38;;;;;;;16.88;74.64;96295.88;5093112;28;20127;-58
2022/08/28 04:02:53;;;;;;;19.33;7.68;;;;;;;16.93;74.92;96292.00;5094451;28;20068;-59
2022/08/28 04:05:21;;;;;;;23.85;8.07;;;;;;;17.00;74.79;96300.34;5097185;28;20048;-58
2022/08/28 04:07:48;;;;;;;22.67;7.50;;;;;;;17.11;74.75;96298.81;5097318;28;20105;-59
2022/08/28 04:10:15;;;;;;;21.52;7.60;;;;;;;17.19;74.40;96299.13;5097156;28;20044;-58
2022/08/28 04:12:43;;;;;;;18.02;6.88;;;;;;;17.25;73.74;96301.34;5097220;28;20059;-58
2022/08/28 04:15:13;;;;;;;18.55;7.43;;;;;;;17.33;73.49;96300.81;5097039;28;20048;-59
2022/08/28 04:17:41;;;;;;;24.48;7.00;;;;;;;17.37;73.31;96294.34;5097114;28;20044;-58
2022/08/28 04:20:10;;;;;;;21.30;6.85;;;;;;;17.59;73.26;96300.81;5096841;28;20402;-59
2022/08/28 04:22:37;;;;;;;24.60;7.40;;;;;;;17.84;73.14;96308.78;5096805;28;20513;-59
2022/08/28 04:25:06;;;;;;;18.65;6.10;;;;;;;18.08;72.33;96300.03;5096820;28;20493;-59
2022/08/28 04:27:34;;;;;;;15.88;6.68;;;;;;;18.33;71.70;96307.06;5096820;28;20383;-59
2022/08/28 04:30:01;;;;;;;18.67;6.63;;;;;;;18.63;70.40;96300.47;5096739;28;20048;-59
2022/08/28 04:32:30;;;;;;;19.80;6.20;;;;;;;18.94;69.99;96303.44;5096868;28;20123;-59
2022/08/28 04:34:57;;;;;;;30.38;6.80;;;;;;;19.33;68.67;96307.66;5096534;28;20052;-59
2022/08/28 04:37:25;;;;;;;15.43;5.97;;;;;;;19.72;67.17;96314.41;5096623;28;20056;-59
2022/08/28 04:39:52;;;;;;;22.30;5.82;;;;;;;20.07;65.85;96308.97;5096511;28;20052;-60
2022/08/28 04:42:20;;;;;;;21.67;5.60;;;;;;;20.37;64.21;96311.06;5096408;28;20134;-58
2022/08/28 04:44:47;;;;;;;19.30;5.70;;;;;;;20.74;63.52;96308.03;5096556;28;20044;-59
2022/08/28 04:47:14;;;;;;;20.67;5.68;;;;;;;21.19;62.85;96309.63;5096339;28;20490;-59
2022/08/28 04:49:43;;;;;;;16.75;5.22;;;;;;;21.62;62.23;96309.59;5096361;28;20476;-58
2022/08/28 04:52:10;;;;;;;12.32;5.30;;;;;;;22.03;61.04;96316.78;5096607;28;20086;-60
2022/08/28 04:54:38;;;;;;;22.23;5.63;;;;;;;22.41;59.88;96317.84;5096192;28;20489;-58
2022/08/28 04:57:07;;;;;;;21.13;5.25;;;;;;;22.78;58.32;96316.31;5096316;28;20048;-59
2022/08/28 04:59:35;;;;;;;15.68;5.40;;;;;;;23.18;57.81;96310.97;5096260;28;20089;-60
2022/08/28 05:02:03;;;;;;;18.27;5.65;;;;;;;23.56;57.39;96316.34;5096002;28;20135;-60
2022/08/28 05:04:30;;;;;;;13.45;4.75;;;;;;;23.99;56.04;96311.44;5096302;28;20052;-59
2022/08/28 05:06:58;;;;;;;18.15;5.38;;;;;;;24.43;54.65;96305.41;5096037;28;20101;-58
2022/08/28 05:09:25;;;;;;;19.88;4.38;;;;;;;24.84;53.76;96309.47;5096112;28;20040;-59
2022/08/28 05:11:53;;;;;;;17.15;5.18;;;;;;;25.26;52.75;96301.78;5096113;28;20082;-59
2022/08/28 05:14:20;;;;;;;13.85;5.15;;;;;;;25.68;52.80;96305.56;5095114;28;20059;-61
2022/08/28 05:16:50;;;;;;;20.70;5.30;;;;;;;26.09;52.30;96308.41;5096170;28;20044;-58
2022/08/28 05:19:20;;;;;;;19.50;4.88;;;;;;;26.53;51.26;96311.06;5095824;28;20044;-58
2022/08/28 05:21:47;;;;;;;18.35;4.65;;;;;;;26.96;50.64;96309.09;5095647;28;20044;-60
2022/08/28 05:24:15;;;;;;;14.82;5.00;;;;;;;27.43;49.93;96300.53;5095643;28;20055;-59
2022/08/28 05:26:43;;;;;;;24.20;5.55;;;;;;;27.79;47.88;96307.34;5095716;28;20055;-60
2022/08/28 05:29:11;;;;;;;19.13;5.18;;;;;;;28.12;47.86;96313.41;5095660;28;20045;-59
2022/08/28 05:31:41;;;;;;;13.55;4.47;;;;;;;28.46;47.93;96310.59;5095542;28;20444;-58
2022/08/28 05:34:09;;;;;;;23.17;5.55;;;;;;;28.85;47.30;96316.88;5095517;28;20054;-59
2022/08/28 05:36:38;;;;;;;21.45;5.10;;;;;;;29.22;46.07;96317.09;5095501;28;20052;-59
2022/08/28 05:39:07;;;;;;;23.58;4.90;;;;;;;29.57;46.25;96324.72;5095209;28;20040;-60
2022/08/28 05:41:38;;;;;;;25.23;4.70;;;;;;;29.84;46.10;96319.72;5095229;28;20044;-59
2022/08/28 05:44:08;;;;;;;21.88;4.88;;;;;;;30.11;44.70;96328.16;5095434;28;20044;-60
2022/08/28 05:46:38;;;;;;;21.98;5.30;;;;;;;30.35;42.44;96326.19;5095414;28;20050;-60
2022/08/28 05:49:06;;;;;;;22.48;5.95;;;;;;;30.55;41.27;96333.69;5095201;28;20109;-60
2022/08/28 05:51:35;;;;;;;23.90;4.78;;;;;;;30.78;43.04;96338.94;5095118;28;20051;-60
2022/08/28 05:54:03;;;;;;;19.48;4.90;;;;;;;31.04;41.94;96339.38;5095380;28;20052;-60
2022/08/28 05:56:35;;;;;;;18.55;5.00;;;;;;;31.14;41.66;96338.03;5095730;28;20050;-60
2022/08/28 05:59:05;;;;;;;32.67;5.43;;;;;;;31.24;41.79;96340.38;5095053;28;20098;-61
2022/08/28 06:01:35;;;;;;;22.80;4.93;;;;;;;31.36;39.57;96338.03;5095422;28;20444;-61
2022/08/28 06:04:07;;;;;;;21.67;5.07;;;;;;;31.47;36.89;96330.41;5094978;28;20494;-61
2022/08/28 06:06:38;;;;;;;24.25;5.93;;;;;;;31.55;38.06;96335.69;5094959;28;20051;-59
2022/08/28 06:09:08;;;;;;;25.50;5.20;;;;;;;31.72;38.71;96336.19;5095012;28;20576;-60
2022/08/28 06:11:37;;;;;;;28.58;5.88;;;;;;;31.92;37.84;96327.41;5094755;28;20075;-60
2022/08/28 06:14:09;;;;;;;23.17;5.40;;;;;;;32.02;37.66;96338.69;5094637;28;20079;-59
2022/08/28 06:16:39;;;;;;;25.48;5.50;;;;;;;32.08;36.36;96333.53;5094689;28;20048;-60
2022/08/28 06:19:08;;;;;;;29.07;5.70;;;;;;;32.14;33.90;96338.94;5094789;28;20048;-61
2022/08/28 06:21:35;;;;;;;31.08;7.00;;;;;;;32.13;35.93;96340.00;5094568;28;20127;-60
2022/08/28 06:24:03;;;;;;;24.08;5.72;;;;;;;32.29;36.13;96343.38;5094733;28;20477;-62
2022/08/28 06:26:31;;;;;;;27.70;5.60;;;;;;;32.35;34.62;96337.16;5094681;28;20044;-60
2022/08/28 06:29:01;;;;;;;25.80;6.10;;;;;;;32.47;34.54;96347.41;5094419;28;20048;-61
2022/08/28 06:31:30;;;;;;;26.08;5.20;;;;;;;32.59;35.37;96345.81;5094793;28;20176;-60
2022/08/28 06:33:59;;;;;;;38.57;5.47;;;;;;;32.40;35.02;96342.81;5094295;28;20055;-59
2022/08/28 06:36:28;;;;;;;29.27;5.80;;;;;;;32.58;34.25;96346.00;5094312;28;20683;-59
2022/08/28 06:38:58;;;;;;;24.35;5.88;;;;;;;32.85;35.13;96346.91;5094273;28;20048;-59
2022/08/28 06:41:27;;;;;;;29.17;5.53;;;;;;;32.95;34.73;96335.69;5094319;28;20052;-60
2022/08/28 06:43:55;;;;;;;31.80;5.78;;;;;;;33.03;33.97;96338.19;5094155;28;20142;-60
2022/08/28 06:46:23;;;;;;;29.83;5.68;;;;;;;33.27;34.63;96346.78;5094240;28;20094;-61
2022/08/28 06:48:53;;;;;;;31.40;5.45;;;;;;;33.51;33.60;96346.34;5094051;28;20094;-62
2022/08/28 06:51:20;;;;;;;24.20;5.57;;;;;;;33.75;33.94;96341.34;5094330;28;20150;-62
2022/08/28 06:53:48;;;;;;;21.63;5.72;;;;;;;33.91;33.64;96345.47;5094025;28;20054;-61
2022/08/28 06:56:18;;;;;;;25.80;5.28;;;;;;;34.00;32.41;96348.78;5094189;28;20564;-60
2022/08/28 06:58:47;;;;;;;30.52;5.63;;;;;;;34.19;32.48;96340.84;5093879;28;20093;-60
2022/08/28 07:01:21;;;;;;;28.70;5.40;;;;;;;34.23;31.20;96353.78;5093877;28;20059;-61
2022/08/28 07:03:49;;;;;;;23.60;5.18;;;;;;;34.28;32.53;96345.00;5093685;28;20048;-60
2022/08/28 07:06:18;;;;;;;27.95;6.13;;;;;;;34.36;32.68;96343.88;5093747;28;20040;-60
2022/08/28 07:08:45;;;;;;;19.65;4.97;;;;;;;34.40;32.78;96347.88;5094060;28;20044;-61
2022/08/28 07:11:15;;;;;;;24.73;5.82;;;;;;;34.44;31.96;96340.09;5093877;28;20105;-59
2022/08/28 07:13:43;;;;;;;21.48;5.18;;;;;;;34.54;32.04;96341.31;5093747;28;20048;-60
2022/08/28 07:16:11;;;;;;;20.95;5.95;;;;;;;34.62;32.54;96344.81;5093635;28;20143;-60
2022/08/28 07:18:39;;;;;;;21.63;5.88;;;;;;;34.69;33.07;96352.94;5093695;28;20101;-61
2022/08/28 07:21:07;;;;;;;21.63;6.10;;;;;;;34.86;32.49;96345.13;5093543;28;20044;-59
2022/08/28 07:23:37;;;;;;;21.80;5.53;;;;;;;35.01;32.64;96353.81;5093604;28;20416;-61
2022/08/28 07:26:07;;;;;;;18.75;5.22;;;;;;;35.22;31.38;96346.38;5093524;28;20083;-61
2022/08/28 07:28:35;;;;;;;28.90;6.25;;;;;;;35.35;30.99;96345.44;5093512;28;20123;-61
2022/08/28 07:31:04;;;;;;;18.98;5.28;;;;;;;35.41;29.73;96346.41;5093548;28;20592;-60
2022/08/28 07:33:32;;;;;;;21.97;5.10;;;;;;;35.68;30.03;96348.91;5093497;28;21115;-59
2022/08/28 07:36:00;;;;;;;24.58;5.60;;;;;;;35.79;29.95;96350.91;5093607;28;20456;-61
2022/08/28 07:38:28;;;;;;;20.02;5.10;;;;;;;35.93;29.36;96345.31;5092859;28;20383;-61
2022/08/28 07:40:57;;;;;;;24.60;5.20;;;;;;;36.10;29.26;96352.88;5093519;28;20117;-59
2022/08/28 07:46:11;;;;;;;30.30;5.63;;;;;;;36.27;28.70;96342.25;5093395;28;20051;-60
2022/08/28 07:48:40;;;;;;;23.40;5.45;;;;;;;36.38;28.53;96338.75;5093291;28;20044;-60
2022/08/28 07:51:09;;;;;;;16.67;5.67;;;;;;;36.32;27.93;96339.66;5093281;28;20139;-59
2022/08/28 07:53:37;;;;;;;24.80;5.20;;;;;;;35.92;29.92;96347.22;5093149;28;20052;-59
2022/08/28 07:56:07;;;;;;;22.17;5.15;;;;;;;35.98;29.00;96345.47;5093080;28;20056;-61
2022/08/28 07:58:35;;;;;;;23.52;6.03;;;;;;;35.86;28.44;96342.69;5093017;28;20063;-61
2022/08/28 08:01:02;;;;;;;20.05;5.20;;;;;;;35.71;30.19;96345.75;5093033;28;20079;-60
2022/08/28 08:03:31;;;;;;;24.13;5.22;;;;;;;35.79;29.29;96339.19;5092740;28;20051;-61
2022/08/28 08:06:02;;;;;;;26.00;5.00;;;;;;;35.86;29.43;96337.25;5092956;28;20052;-61
2022/08/28 08:08:31;;;;;;;20.75;5.00;;;;;;;36.10;27.93;96339.28;5092926;28;20056;-61
2022/08/28 08:11:00;;;;;;;34.10;5.43;;;;;;;36.15;27.45;96337.53;5092379;28;20044;-60
2022/08/28 08:13:30;;;;;;;21.35;4.88;;;;;;;35.99;26.11;96344.41;5092614;28;20546;-60
2022/08/28 08:16:01;;;;;;;21.63;5.63;;;;;;;35.60;28.76;96343.75;5091242;28;20063;-58
2022/08/28 08:18:28;;;;;;;17.30;4.90;;;;;;;35.50;27.37;96342.38;5092401;28;20048;-61
2022/08/28 08:20:56;;;;;;;21.40;5.03;;;;;;;35.39;26.27;96340.34;5093022;28;20044;-62
2022/08/28 08:23:23;;;;;;;22.15;5.72;;;;;;;35.63;27.85;96344.13;5092755;28;20147;-60
2022/08/28 08:25:58;;;;;;;20.77;7.07;;;;;;;35.93;27.72;96348.03;5092157;28;20054;-61
2022/08/28 08:28:26;;;;;;;17.60;5.35;;;;;;;36.19;26.26;96334.34;5092803;28;20048;-60
2022/08/28 08:31:05;;;;;;;19.60;4.97;;;;;;;35.90;27.27;96334.88;5093025;28;20506;-59
2022/08/28 08:33:33;;;;;;;18.75;5.72;;;;;;;35.87;28.20;96340.78;5092972;28;20048;-59
2022/08/28 08:36:01;;;;;;;24.92;5.63;;;;;;;35.97;28.76;96338.38;5092170;28;20123;-60
2022/08/28 08:38:30;;;;;;;24.83;5.53;;;;;;;36.27;27.21;96334.91;5092804;28;20109;-59
2022/08/28 08:40:59;;;;;;;24.67;5.25;;;;;;;36.41;26.61;96334.75;5092766;28;20056;-61
2022/08/28 08:43:29;;;;;;;18.55;4.97;;;;;;;36.21;27.89;96335.00;5092664;28;20083;-59
2022/08/28 08:45:57;;;;;;;25.42;5.65;;;;;;;36.25;27.94;96339.78;5092082;28;20093;-61
2022/08/28 08:48:34;;;;;;;17.92;4.60;;;;;;;36.29;26.41;96337.41;5092673;28;20097;-60
2022/08/28 08:51:05;;;;;;;14.75;4.18;;;;;;;35.91;25.40;96340.09;5095464;28;20040;-60
2022/08/28 08:53:42;;;;;;;15.93;4.40;;;;;;;35.96;28.62;96338.63;5096317;28;20468;-61
2022/08/28 08:56:15;;;;;;;22.98;4.82;;;;;;;35.85;27.64;96334.75;5095695;28;20109;-58
2022/08/28 08:58:46;;;;;;;28.73;5.35;;;;;;;35.49;28.33;96331.72;5096135;28;20553;-61
2022/08/28 09:01:18;;;;;;;14.80;4.75;;;;;;;35.56;28.12;96332.50;5096123;28;20106;-60
2022/08/28 09:03:57;;;;;;;23.10;4.80;;;;;;;35.68;27.63;96329.88;5096034;28;20036;-60
2022/08/28 09:06:34;;;;;;;19.88;4.90;;;;;;;35.36;26.68;96329.97;5095938;28;20048;-61
2022/08/28 09:09:05;;;;;;;23.42;5.47;;;;;;;35.19;29.23;96322.38;5085126;28;20107;-59
2022/08/28 09:11:43;;;;;;;27.58;4.75;;;;;;;35.48;27.28;96320.00;5096023;28;20052;-59
2022/08/28 09:14:19;;;;;;;28.95;5.43;;;;;;;35.67;28.10;96328.22;5095869;28;20070;-60
2022/08/28 09:16:47;;;;;;;21.25;5.32;;;;;;;35.37;26.78;96323.47;5095633;28;20051;-60
2022/08/28 09:19:21;;;;;;;26.35;5.72;;;;;;;35.12;28.65;96324.28;5096012;28;20406;-60
2022/08/28 09:21:50;;;;;;;24.45;4.63;;;;;;;35.01;25.29;96325.81;5095678;28;20044;-60
2022/08/28 09:24:21;;;;;;;21.30;5.57;;;;;;;35.03;27.19;96312.81;5095666;28;20074;-60
2022/08/28 09:26:58;;;;;;;21.38;4.75;;;;;;;35.02;29.16;96324.75;5095636;28;20056;-60
2022/08/28 09:29:30;;;;;;;26.17;5.57;;;;;;;34.86;27.39;96318.81;5078704;28;20048;-60
2022/08/28 09:31:58;;;;;;;23.38;5.03;;;;;;;34.68;26.32;96327.69;5092073;28;20052;-60
2022/08/28 09:34:31;;;;;;;20.50;4.70;;;;;;;34.52;28.66;96318.97;5092329;28;20123;-59
2022/08/28 09:37:00;;;;;;;23.33;4.93;;;;;;;34.31;25.70;96314.69;5095528;28;20093;-60
2022/08/28 09:39:29;;;;;;;19.42;4.72;;;;;;;34.29;26.62;96308.66;5094743;28;20048;-59
2022/08/28 09:44:59;;;;;;;16.00;4.72;;;;;;;34.38;25.86;96306.53;5095482;28;20058;-58
2022/08/28 09:47:47;;;;;;;17.70;5.03;;;;;;;34.52;25.92;96318.16;5095324;28;20117;-59
2022/08/28 09:50:27;;;;;;;19.60;4.53;;;;;;;34.55;26.24;96309.56;5095220;28;20655;-60
2022/08/28 09:52:56;;;;;;;12.98;4.47;;;;;;;34.32;26.03;96305.53;5095301;28;20478;-60
2022/08/28 09:55:36;;;;;;;27.20;5.07;;;;;;;34.31;28.54;96301.13;5095339;28;20398;-59
2022/08/28 09:58:04;;;;;;;22.55;5.25;;;;;;;34.36;29.24;96301.31;5095303;28;20044;-58
2022/08/28 10:00:37;;;;;;;21.95;4.78;;;;;;;34.56;29.09;96305.81;5094378;28;20486;-60
2022/08/28 10:03:14;;;;;;;32.17;5.97;;;;;;;34.62;28.03;96306.81;5094898;28;20048;-59
2022/08/28 10:05:51;;;;;;;18.55;5.40;;;;;;;34.89;27.11;96306.69;5094883;28;20400;-60
2022/08/28 10:08:30;;;;;;;16.98;5.35;;;;;;;34.96;28.45;96312.88;5094939;28;20044;-59
2022/08/28 10:11:03;;;;;;;30.92;5.57;;;;;;;34.75;28.58;96304.03;5093687;28;20048;-59
2022/08/28 10:13:35;;;;;;;15.95;5.20;;;;;;;34.50;27.88;96302.09;5094812;28;20076;-59
2022/08/28 10:16:24;;;;;;;23.30;5.20;;;;;;;34.37;28.37;96294.03;5094742;28;20469;-60
2022/08/28 10:19:04;;;;;;;21.40;5.70;;;;;;;34.48;27.95;96301.47;5094664;28;20489;-59
2022/08/28 10:21:39;;;;;;;15.50;5.55;;;;;;;34.45;27.92;96292.91;5074519;28;20508;-59
2022/08/28 10:24:30;;;;;;;17.67;4.80;;;;;;;34.59;29.14;96297.22;5090444;28;20083;-59
2022/08/28 10:27:09;;;;;;;35.90;11.23;;;;;;;34.55;28.48;96295.97;5094561;28;20048;-59
2022/08/28 10:29:50;;;;;;;21.15;7.85;;;;;;;34.45;28.62;96287.47;5093633;28;20052;-60
2022/08/28 10:32:43;;;;;;;26.17;5.47;;;;;;;34.27;28.66;96292.59;5093506;28;20051;-60
2022/08/28 10:35:15;;;;;;;18.10;5.45;;;;;;;33.87;30.89;96290.00;5094341;28;20084;-59
2022/08/28 10:37:55;;;;;;;28.73;5.40;;;;;;;33.74;30.16;96291.69;5094201;28;20044;-59
2022/08/28 10:40:28;;;;;;;21.98;5.00;;;;;;;33.60;28.22;96281.94;5093676;28;20055;-60
2022/08/28 10:43:03;;;;;;;46.67;29.10;;;;;;;33.64;30.30;96285.88;5093754;28;20048;-60
2022/08/28 10:45:34;;;;;;;26.05;7.18;;;;;;;33.69;31.28;96280.69;5094094;28;20459;-58
2022/08/28 10:48:07;;;;;;;33.85;21.30;;;;;;;33.77;30.66;96290.47;5094028;28;20069;-60
2022/08/28 10:50:42;;;;;;;26.23;8.70;;;;;;;33.83;29.92;96277.94;5094137;28;20040;-59
2022/08/28 10:53:17;;;;;;;23.10;5.45;;;;;;;34.08;28.95;96283.47;5093676;28;20052;-60
2022/08/28 10:55:54;;;;;;;24.58;7.50;;;;;;;34.34;29.49;96278.16;5094147;28;20054;-59
2022/08/28 10:58:24;;;;;;;25.20;5.40;;;;;;;34.23;27.26;96277.81;5093934;28;20055;-60
2022/08/28 11:00:55;;;;;;;17.05;4.95;;;;;;;33.91;27.79;96278.53;5094016;28;20060;-59
2022/08/28 11:03:22;;;;;;;;;;;;;;;33.79;28.50;96277.50;5094161;28;20056;-60
2022/08/28 11:05:54;;;;;;;16.23;4.93;;;;;;;33.59;27.58;96281.09;5093670;28;19959;-59
2022/08/28 11:08:28;;;;;;;14.55;5.00;;;;;;;33.49;29.68;96275.25;5093503;28;20044;-59
2022/08/28 11:10:59;;;;;;;19.42;5.70;;;;;;;33.67;29.75;96276.53;5093845;28;20072;-59
2022/08/28 11:13:47;;;;;;;19.83;4.80;;;;;;;33.77;29.55;96272.31;5092621;28;20043;-60
2022/08/28 11:16:21;;;;;;;18.33;5.00;;;;;;;33.99;30.22;96274.75;5093703;28;20041;-58
2022/08/28 11:19:19;;;;;;;16.30;4.82;;;;;;;33.93;27.22;96262.03;5093560;28;20482;-60
2022/08/28 11:21:51;;;;;;;17.13;4.50;;;;;;;33.80;27.38;96264.81;5093561;28;20132;-59
2022/08/28 11:24:55;;;;;;;32.60;4.78;;;;;;;33.54;28.81;96267.34;5092544;28;20052;-60
2022/08/28 11:27:31;;;;;;;11.75;4.93;;;;;;;33.60;26.82;96265.69;5093467;28;20456;-58
2022/08/28 11:30:31;;;;;;;22.83;5.20;;;;;;;33.49;26.96;96262.56;5093389;28;20055;-58
2022/08/28 11:33:06;;;;;;;21.65;5.50;;;;;;;33.61;27.52;96264.63;5092080;28;20135;-60
2022/08/28 11:35:44;;;;;;;24.08;4.68;;;;;;;33.77;29.17;96264.16;5093321;28;20102;-59
2022/08/28 11:38:12;;;;;;;19.92;4.97;;;;;;;33.90;27.22;96266.03;5093238;28;20051;-60
2022/08/28 11:41:13;;;;;;;17.08;4.88;;;;;;;33.83;24.88;96270.59;5093236;28;20056;-60
2022/08/28 11:43:44;;;;;;;18.85;4.80;;;;;;;33.75;26.90;96266.28;5058683;28;20125;-59
2022/08/28 11:46:24;;;;;;;25.30;5.57;;;;;;;33.68;27.45;96259.22;5073009;28;20045;-60
2022/08/28 11:48:53;;;;;;;15.13;4.63;;;;;;;33.41;26.65;96260.88;5073024;28;20103;-59